Time;durP1;ratioP1;P1;durP2;ratioP2;P2;SDS_P1;SDS_P2;PMS_P1;PMS_P2;Temp;Humidity;BMP_temperature;BMP_pressure;BME280_temperature;BME280_humidity;BME280_pressure;Samples;Min_cycle;Max_cycle;Signal;HPM_P1;HPM_P2
2021/04/11 00:00:07;;;;;;;21.37;11.57;;;;;;;6.70;38.50;100210.88;339276;118;1963046;-73
2021/04/11 00:01:13;;;;;;;21.02;10.39;;;;;;;6.72;38.37;100211.55;318854;118;1960712;-74
2021/04/11 00:02:19;;;;;;;21.38;12.53;;;;;;;6.77;38.27;100205.66;338518;117;1961763;-73
2021/04/11 00:03:28;;;;;;;23.37;11.01;;;;;;;6.77;38.26;100214.58;333978;119;1962037;-73
2021/04/11 00:04:33;;;;;;;18.63;10.83;;;;;;;6.76;38.27;100209.36;332574;119;1964014;-73
2021/04/11 00:05:40;;;;;;;18.78;10.50;;;;;;;6.80;38.26;100208.00;336549;117;1963979;-73
2021/04/11 00:06:46;;;;;;;20.05;11.07;;;;;;;6.80;38.23;100214.23;296831;119;2763939;-73
2021/04/11 00:07:51;;;;;;;18.44;10.39;;;;;;;6.79;38.19;100212.54;311138;118;1963055;-73
2021/04/11 00:08:57;;;;;;;18.75;10.69;;;;;;;6.80;38.11;100213.37;337327;118;1962966;-73
2021/04/11 00:10:06;;;;;;;19.78;10.73;;;;;;;6.78;38.18;100210.88;338542;117;1962977;-74
2021/04/11 00:11:12;;;;;;;22.36;11.08;;;;;;;6.79;38.12;100220.59;338842;118;1962001;-73
2021/04/11 00:12:17;;;;;;;20.97;11.04;;;;;;;6.78;38.13;100215.41;336752;117;1962016;-73
2021/04/11 00:13:27;;;;;;;20.72;10.66;;;;;;;6.77;38.20;100219.08;339945;118;1963092;-73
2021/04/11 00:14:33;;;;;;;17.12;10.31;;;;;;;6.77;38.18;100224.45;336303;119;1964972;-73
2021/04/11 00:15:39;;;;;;;19.27;10.29;;;;;;;6.78;38.08;100232.35;302453;118;2698052;-73
2021/04/11 00:16:45;;;;;;;20.48;11.36;;;;;;;6.79;38.08;100219.76;336949;119;1962033;-73
2021/04/11 00:17:51;;;;;;;18.02;9.73;;;;;;;6.78;38.04;100228.83;337671;118;1964127;-73
2021/04/11 00:18:57;;;;;;;17.58;10.06;;;;;;;6.78;38.07;100221.61;338443;118;1961956;-74
2021/04/11 00:20:04;;;;;;;20.01;10.30;;;;;;;6.79;38.02;100223.28;305534;119;2600987;-74
2021/04/11 00:21:11;;;;;;;16.39;10.61;;;;;;;6.80;37.98;100224.11;337872;117;1961999;-73
2021/04/11 00:22:17;;;;;;;17.26;9.79;;;;;;;6.81;37.93;100223.95;293959;118;2834991;-73
2021/04/11 00:23:26;;;;;;;21.97;10.46;;;;;;;6.87;37.76;100218.92;335300;119;1962100;-73
2021/04/11 00:24:31;;;;;;;16.64;9.43;;;;;;;6.73;37.77;100193.59;303945;118;2010939;-73
2021/04/11 00:25:39;;;;;;;17.08;10.49;;;;;;;6.90;37.71;100226.64;331488;118;1964933;-73
2021/04/11 00:26:46;;;;;;;17.42;10.52;;;;;;;6.88;37.71;100229.52;316342;117;2343971;-72
2021/04/11 00:27:51;;;;;;;15.86;9.67;;;;;;;6.88;37.74;100225.96;319298;119;1963968;-73
2021/04/11 00:28:56;;;;;;;17.85;10.27;;;;;;;6.88;37.76;100225.96;339834;117;1961968;-74
2021/04/11 00:30:05;;;;;;;19.03;9.22;;;;;;;6.86;37.80;100228.00;334242;121;1962074;-73
2021/04/11 00:31:11;;;;;;;16.87;9.34;;;;;;;6.85;37.79;100224.45;318470;119;1961856;-73
2021/04/11 00:32:17;;;;;;;16.79;9.01;;;;;;;6.83;37.82;100230.01;339075;117;1962043;-73
2021/04/11 00:33:35;;;;;;;19.28;11.08;;;;;;;6.81;37.90;100229.33;338944;118;1961974;-73
2021/04/11 00:34:40;;;;;;;18.19;10.18;;;;;;;6.80;37.94;100224.98;337696;117;1961969;-73
2021/04/11 00:35:46;;;;;;;20.29;10.22;;;;;;;6.78;38.04;100232.35;335251;119;1963045;-73
2021/04/11 00:36:52;;;;;;;19.08;9.59;;;;;;;6.78;37.95;100226.98;337012;118;1961979;-73
2021/04/11 00:37:59;;;;;;;20.18;10.30;;;;;;;6.78;37.93;100220.78;296260;119;2779935;-74
2021/04/11 00:39:05;;;;;;;21.84;10.61;;;;;;;6.76;38.04;100228.98;337999;119;1963927;-73
2021/04/11 00:40:21;;;;;;;21.86;10.59;;;;;;;6.76;38.03;100222.78;335953;119;1961965;-73
2021/04/11 00:41:33;;;;;;;20.12;10.48;;;;;;;6.75;38.05;100238.06;315582;118;2962968;-72
2021/04/11 00:42:42;;;;;;;19.11;10.96;;;;;;;6.75;38.05;100242.59;340334;119;1962070;-73
2021/04/11 00:43:48;;;;;;;19.52;10.86;;;;;;;6.73;38.08;100231.18;336024;119;1963940;-73
2021/04/11 00:45:10;;;;;;;21.17;10.33;;;;;;;6.71;38.09;100231.33;338322;119;1962100;-72
2021/04/11 00:46:41;;;;;;;18.73;10.84;;;;;;;6.70;38.17;100248.46;338463;117;1961962;-74
2021/04/11 00:47:48;;;;;;;17.44;10.82;;;;;;;6.69;38.15;100232.51;338526;117;1960973;-73
2021/04/11 00:48:54;;;;;;;18.83;9.81;;;;;;;6.68;38.17;100228.16;336994;119;1962004;-73
2021/04/11 00:50:05;;;;;;;20.07;11.81;;;;;;;6.65;38.18;100234.70;313578;118;2450037;-73
2021/04/11 00:51:13;;;;;;;18.52;10.68;;;;;;;6.66;38.25;100235.53;333453;117;1960809;-74
2021/04/11 00:52:20;;;;;;;18.26;11.24;;;;;;;6.64;38.28;100229.48;293714;121;2756916;-73
2021/04/11 00:53:26;;;;;;;20.23;10.45;;;;;;;6.63;38.30;100233.18;312780;121;1960949;-73
2021/04/11 00:54:33;;;;;;;19.42;9.39;;;;;;;6.62;38.30;100234.20;336104;119;1962956;-73
2021/04/11 00:55:39;;;;;;;20.81;10.54;;;;;;;6.62;38.35;100234.20;329086;118;2898080;-73
2021/04/11 00:56:45;;;;;;;17.21;9.72;;;;;;;6.61;38.37;100227.97;338912;118;1961971;-73
2021/04/11 00:57:53;;;;;;;18.92;9.87;;;;;;;6.62;38.32;100224.30;338063;118;1962071;-74
2021/04/11 00:59:01;;;;;;;18.42;9.99;;;;;;;6.60;38.33;100235.19;305212;119;1962969;-73
2021/04/11 01:00:08;;;;;;;21.77;9.67;;;;;;;6.59;38.36;100232.69;336320;119;1961940;-74
2021/04/11 01:01:13;;;;;;;18.83;10.02;;;;;;;6.59;38.36;100235.37;332914;119;1962023;-73
2021/04/11 01:02:19;;;;;;;18.86;10.09;;;;;;;6.58;38.36;100233.67;338554;118;1962053;-73
2021/04/11 01:03:32;;;;;;;16.84;10.20;;;;;;;6.58;38.46;100233.67;337575;119;1962979;-73
2021/04/11 01:04:38;;;;;;;17.78;9.87;;;;;;;6.59;38.36;100230.00;338095;118;1962910;-73
2021/04/11 01:05:45;;;;;;;18.91;9.87;;;;;;;6.58;38.39;100233.67;340261;117;1962020;-72
2021/04/11 01:06:55;;;;;;;16.64;9.81;;;;;;;6.57;38.41;100232.84;335058;119;1960946;-73
2021/04/11 01:08:10;;;;;;;17.32;9.72;;;;;;;6.59;38.40;100238.89;288827;119;2159303;-73
2021/04/11 01:09:24;;;;;;;20.10;11.24;;;;;;;6.57;38.38;100235.52;330164;121;1962040;-73
2021/04/11 01:10:33;;;;;;;17.03;9.26;;;;;;;6.55;38.42;100232.16;305959;119;2439964;-73
2021/04/11 01:11:40;;;;;;;17.61;9.96;;;;;;;6.53;38.43;100227.96;330117;120;1961999;-73
2021/04/11 01:12:47;;;;;;;17.28;10.30;;;;;;;6.52;38.47;100231.66;332358;119;1961905;-73
2021/04/11 01:13:57;;;;;;;17.14;9.85;;;;;;;6.51;38.50;100235.33;337184;117;1962023;-74
2021/04/11 01:15:06;;;;;;;19.28;9.81;;;;;;;6.50;38.54;100239.86;339419;118;1961995;-73
2021/04/11 01:16:14;;;;;;;17.43;10.76;;;;;;;6.48;38.55;100238.35;336519;119;1961996;-73
2021/04/11 01:17:21;;;;;;;21.51;11.05;;;;;;;6.47;38.64;100242.05;338990;119;1964010;-74
2021/04/11 01:18:28;;;;;;;19.48;10.94;;;;;;;6.43;38.69;100243.38;323435;119;2242960;-73
2021/04/11 01:19:36;;;;;;;19.19;10.66;;;;;;;6.41;38.71;100245.41;327585;119;1964024;-73
2021/04/11 01:20:43;;;;;;;18.56;9.36;;;;;;;6.42;38.71;100237.17;309221;119;2477024;-73
2021/04/11 01:22:13;;;;;;;19.08;11.42;;;;;;;6.41;38.73;100240.04;338183;119;1961969;-73
2021/04/11 01:23:37;;;;;;;17.87;9.96;;;;;;;6.38;38.75;100239.36;339591;117;1961783;-73
2021/04/11 01:24:53;;;;;;;17.58;10.39;;;;;;;6.36;38.79;100243.20;333166;118;1962083;-73
2021/04/11 01:26:00;;;;;;;16.68;9.38;;;;;;;6.34;38.82;100237.98;335982;119;1961938;-73
2021/04/11 01:27:10;;;;;;;18.29;10.83;;;;;;;6.33;38.88;100238.17;300267;121;1961998;-73
2021/04/11 01:28:19;;;;;;;19.79;9.77;;;;;;;6.32;38.85;100237.31;301082;119;2218962;-72
2021/04/11 01:29:26;;;;;;;17.45;9.92;;;;;;;6.33;38.87;100236.33;317374;119;2357042;-73
2021/04/11 01:30:38;;;;;;;17.65;11.06;;;;;;;6.33;38.86;100241.69;339447;118;1961976;-73
2021/04/11 01:31:44;;;;;;;22.14;10.83;;;;;;;6.32;38.87;100239.99;332818;121;1962082;-73
2021/04/11 01:32:51;;;;;;;18.71;10.54;;;;;;;6.29;38.89;100226.91;329851;121;1970987;-72
2021/04/11 01:33:59;;;;;;;16.01;10.21;;;;;;;6.27;38.92;100228.08;335727;118;1962012;-73
2021/04/11 01:35:05;;;;;;;19.28;10.39;;;;;;;6.27;39.00;100230.77;326365;119;1964989;-72
2021/04/11 01:36:14;;;;;;;20.22;11.40;;;;;;;6.26;38.99;100231.78;338702;118;1960990;-73
2021/04/11 01:37:23;;;;;;;18.57;11.20;;;;;;;6.24;39.07;100233.78;333410;120;1961988;-73
2021/04/11 01:38:29;;;;;;;16.10;9.56;;;;;;;6.24;39.10;100239.14;309450;119;1963068;-74
2021/04/11 01:39:39;;;;;;;21.72;10.53;;;;;;;6.21;39.13;100229.58;332851;119;1962936;-73
2021/04/11 01:40:52;;;;;;;18.83;10.06;;;;;;;6.20;39.16;100229.76;335457;119;1962362;-72
2021/04/11 01:42:00;;;;;;;20.26;10.47;;;;;;;6.20;39.32;100233.27;338863;119;1962035;-74
2021/04/11 01:43:08;;;;;;;17.03;10.52;;;;;;;6.21;39.22;100239.47;334115;119;1962930;-73
2021/04/11 01:44:20;;;;;;;19.78;10.77;;;;;;;6.18;39.23;100232.59;333619;119;1963967;-71
2021/04/11 01:45:29;;;;;;;20.38;10.69;;;;;;;6.20;39.28;100235.95;296779;118;2234000;-73
2021/04/11 01:46:35;;;;;;;16.06;8.81;;;;;;;6.20;39.28;100229.76;337940;119;1961905;-73
2021/04/11 01:47:41;;;;;;;19.10;10.36;;;;;;;6.20;39.27;100235.95;294668;123;2240011;-73
2021/04/11 01:48:47;;;;;;;18.17;9.97;;;;;;;6.20;39.30;100227.08;334085;119;1961924;-73
2021/04/11 01:49:53;;;;;;;17.54;10.09;;;;;;;6.19;39.28;100236.94;338253;117;1961930;-73
2021/04/11 01:51:01;;;;;;;18.44;9.94;;;;;;;6.17;39.32;100228.24;338205;118;1962048;-73
2021/04/11 01:52:10;;;;;;;17.48;10.27;;;;;;;6.14;39.35;100234.77;339503;119;1962026;-73
2021/04/11 01:53:18;;;;;;;16.66;9.99;;;;;;;6.15;39.41;100231.08;338420;119;1961974;-73
2021/04/11 01:54:27;;;;;;;18.56;9.59;;;;;;;6.12;39.45;100230.57;315314;118;2420017;-73
2021/04/11 01:55:33;;;;;;;17.82;9.88;;;;;;;6.12;39.48;100235.94;336966;117;1961963;-73
2021/04/11 01:56:44;;;;;;;16.28;10.33;;;;;;;6.10;39.57;100237.94;337313;117;1962053;-73
2021/04/11 01:57:55;;;;;;;16.58;10.27;;;;;;;6.09;39.57;100234.42;336114;119;1961970;-73
2021/04/11 01:59:05;;;;;;;19.87;10.89;;;;;;;6.10;39.57;100240.62;337943;118;1961987;-73
2021/04/11 02:00:17;;;;;;;18.19;10.26;;;;;;;6.09;39.58;100233.59;313986;120;1962041;-73
2021/04/11 02:01:31;;;;;;;16.43;9.57;;;;;;;6.09;39.61;100239.78;338922;119;1962014;-73
2021/04/11 02:02:38;;;;;;;15.45;9.86;;;;;;;6.13;39.54;100234.92;330026;119;1961738;-73
2021/04/11 02:03:44;;;;;;;16.34;9.63;;;;;;;6.15;39.50;100240.97;330336;120;1960794;-72
2021/04/11 02:04:51;;;;;;;17.63;9.86;;;;;;;6.16;39.51;100237.27;331146;120;1962016;-73
2021/04/11 02:06:00;;;;;;;17.83;9.51;;;;;;;6.15;39.49;100233.76;315484;119;1961943;-73
2021/04/11 02:07:08;;;;;;;18.58;10.36;;;;;;;6.14;39.48;100234.77;301311;118;2024541;-73
2021/04/11 02:08:19;;;;;;;17.79;10.53;;;;;;;6.16;39.38;100242.64;311450;117;1962987;-73
2021/04/11 02:09:29;;;;;;;19.42;10.71;;;;;;;6.14;39.43;100234.77;339227;117;1962045;-74
2021/04/11 02:10:47;;;;;;;20.83;10.92;;;;;;;6.11;39.47;100231.55;328129;119;1962967;-73
2021/04/11 02:11:55;;;;;;;18.04;10.07;;;;;;;6.09;39.53;100237.10;287780;120;2200501;-73
2021/04/11 02:13:01;;;;;;;18.13;11.02;;;;;;;6.09;39.54;100247.00;336305;119;1970904;-73
2021/04/11 02:14:10;;;;;;;18.76;9.87;;;;;;;6.08;39.56;100237.25;337510;117;1961981;-73
2021/04/11 02:15:23;;;;;;;19.28;11.13;;;;;;;6.09;39.55;100238.95;337354;118;1962945;-73
2021/04/11 02:16:32;;;;;;;18.59;10.66;;;;;;;6.07;39.59;100246.31;337063;108;1964998;-74
2021/04/11 02:17:38;;;;;;;17.42;9.91;;;;;;;6.07;39.62;100249.00;336456;112;1962053;-74
2021/04/11 02:18:44;;;;;;;17.67;9.74;;;;;;;6.07;39.60;100251.67;351981;112;1961952;-72
2021/04/11 02:20:00;;;;;;;17.76;9.84;;;;;;;6.06;39.60;100245.48;353238;112;1962043;-73
2021/04/11 02:21:20;;;;;;;20.52;10.84;;;;;;;6.07;39.60;100249.83;339878;116;1962990;-73
2021/04/11 02:22:30;;;;;;;17.72;9.79;;;;;;;6.02;39.70;100249.47;344072;116;1962052;-73
2021/04/11 02:23:37;;;;;;;16.16;10.12;;;;;;;6.01;39.75;100253.17;331018;116;1961918;-73
2021/04/11 02:24:43;;;;;;;21.42;12.31;;;;;;;5.98;39.79;100245.45;336029;118;1964041;-73
2021/04/11 02:25:52;;;;;;;17.42;9.78;;;;;;;5.94;39.89;100246.77;314510;119;2285962;-73
2021/04/11 02:26:59;;;;;;;18.46;10.77;;;;;;;5.92;39.90;100246.05;333464;119;1962047;-74
2021/04/11 02:28:05;;;;;;;18.33;11.36;;;;;;;5.92;39.98;100252.24;301837;118;2235713;-73
2021/04/11 02:29:19;;;;;;;21.98;10.89;;;;;;;5.90;39.99;100251.59;348227;114;1963991;-73
2021/04/11 02:30:26;;;;;;;18.91;10.70;;;;;;;5.90;39.99;100256.95;341419;114;1960648;-74
2021/04/11 02:31:33;;;;;;;17.43;9.56;;;;;;;5.88;40.01;100256.27;348287;114;1961903;-74
2021/04/11 02:32:44;;;;;;;16.88;10.14;;;;;;;5.87;40.04;100249.20;304558;114;2829035;-74
2021/04/11 02:33:56;;;;;;;18.70;10.23;;;;;;;5.86;40.09;100252.90;348828;115;1962051;-74
2021/04/11 02:35:06;;;;;;;18.61;10.52;;;;;;;5.85;40.16;100250.39;346772;114;1961994;-74
2021/04/11 02:36:12;;;;;;;17.86;10.51;;;;;;;5.82;40.16;100254.23;347600;114;1962049;-74
2021/04/11 02:37:24;;;;;;;17.92;9.47;;;;;;;5.82;40.24;100256.05;291369;116;2200609;-73
2021/04/11 02:38:30;;;;;;;;;;;;;;;5.82;40.22;100264.96;345907;116;1963031;-74
2021/04/11 02:39:39;;;;;;;17.78;9.23;;;;;;;5.80;40.33;100263.44;348407;114;1960889;-73
2021/04/11 02:40:49;;;;;;;18.00;9.46;;;;;;;5.77;40.26;100264.59;314844;115;2610072;-74
2021/04/11 02:42:03;;;;;;;18.81;10.26;;;;;;;5.77;40.40;100261.92;327829;114;1964853;-73
2021/04/11 02:43:10;;;;;;;;;;;;;;;5.77;40.27;100261.05;344482;117;1963952;-73
2021/04/11 02:44:16;;;;;;;17.71;10.32;;;;;;;5.76;40.33;100264.75;319371;119;2274966;-73
2021/04/11 02:45:25;;;;;;;17.28;9.54;;;;;;;5.75;40.33;100268.44;348512;114;1961971;-72
2021/04/11 02:46:36;;;;;;;17.79;11.18;;;;;;;5.75;40.28;100277.31;349229;114;1962021;-73
2021/04/11 02:47:43;;;;;;;17.88;9.74;;;;;;;5.75;40.26;100271.95;347765;114;1960906;-73
2021/04/11 02:48:53;;;;;;;16.47;9.43;;;;;;;5.76;40.25;100272.78;347931;114;1963986;-73
2021/04/11 02:49:59;;;;;;;17.58;9.96;;;;;;;5.75;40.27;100274.63;341404;117;1961945;-73
2021/04/11 02:51:06;;;;;;;18.41;10.23;;;;;;;5.74;40.29;100272.94;348630;114;1963940;-72
2021/04/11 02:52:32;;;;;;;18.47;10.80;;;;;;;5.73;40.32;100276.62;332007;114;2265960;-72
2021/04/11 02:53:39;;;;;;;18.41;11.00;;;;;;;5.75;40.32;100277.31;319251;114;2533010;-74
2021/04/11 02:54:47;;;;;;;18.87;10.56;;;;;;;5.73;40.36;100284.67;347426;114;1962008;-73
2021/04/11 02:55:55;;;;;;;18.97;11.01;;;;;;;5.73;40.35;100279.31;348344;114;1962012;-72
2021/04/11 02:57:04;;;;;;;19.78;11.23;;;;;;;5.71;40.36;100279.45;307761;114;2100315;-73
2021/04/11 02:58:14;;;;;;;17.86;9.36;;;;;;;5.70;40.43;100285.83;316642;114;2582990;-73
2021/04/11 02:59:22;;;;;;;17.28;10.11;;;;;;;5.70;40.48;100279.63;311762;114;2017080;-73
2021/04/11 03:00:34;;;;;;;18.67;10.51;;;;;;;5.69;40.52;100281.48;348273;114;1962040;-73
2021/04/11 03:01:43;;;;;;;17.71;10.03;;;;;;;5.67;40.60;100285.31;348828;116;1962068;-73
2021/04/11 03:02:50;;;;;;;19.17;10.76;;;;;;;5.65;40.64;100285.46;306109;116;2811004;-73
2021/04/11 03:03:57;;;;;;;20.48;10.28;;;;;;;5.65;40.66;100292.66;324702;114;1961985;-73
2021/04/11 03:05:03;;;;;;;18.89;10.76;;;;;;;5.62;40.67;100291.14;349172;116;1963982;-73
2021/04/11 03:06:16;;;;;;;21.09;10.47;;;;;;;5.64;40.75;100285.64;310361;114;2058676;-72
2021/04/11 03:07:38;;;;;;;20.48;11.69;;;;;;;5.61;40.74;100289.47;347715;114;1962014;-73
2021/04/11 03:08:47;;;;;;;22.33;11.08;;;;;;;5.59;40.85;100293.31;325121;114;2412950;-73
2021/04/11 03:10:00;;;;;;;21.33;10.92;;;;;;;5.57;40.86;100288.09;318933;116;1962978;-73
2021/04/11 03:11:12;;;;;;;17.81;10.59;;;;;;;5.56;40.87;100291.78;294284;117;2873957;-73
2021/04/11 03:12:19;;;;;;;21.67;11.00;;;;;;;5.55;40.97;100291.93;317540;117;2376963;-73
2021/04/11 03:13:24;;;;;;;18.48;10.80;;;;;;;5.53;40.99;100293.92;347070;114;1961991;-73
2021/04/11 03:14:34;;;;;;;18.72;10.14;;;;;;;5.53;41.07;100293.92;348327;114;1962022;-73
2021/04/11 03:15:41;;;;;;;23.79;10.62;;;;;;;5.56;41.03;100291.78;348451;114;1962021;-73
2021/04/11 03:16:47;;;;;;;20.31;10.47;;;;;;;5.57;41.02;100293.45;327006;117;2252954;-74
2021/04/11 03:17:56;;;;;;;18.52;11.91;;;;;;;5.58;41.04;100296.97;347001;114;1962059;-73
2021/04/11 03:19:04;;;;;;;20.29;10.76;;;;;;;5.59;41.11;100294.14;349026;114;1961991;-73
2021/04/11 03:20:20;;;;;;;23.76;11.79;;;;;;;5.61;41.07;100296.65;329951;115;2221984;-73
2021/04/11 03:21:28;;;;;;;19.56;11.04;;;;;;;5.62;41.06;100298.35;343713;115;1961931;-73
2021/04/11 03:22:36;;;;;;;17.78;9.91;;;;;;;5.64;41.06;100302.55;347787;114;1962004;-73
2021/04/11 03:23:43;;;;;;;17.49;10.05;;;;;;;5.66;41.02;100302.38;340365;117;1961984;-73
2021/04/11 03:24:56;;;;;;;18.24;10.53;;;;;;;5.68;41.00;100306.58;337741;118;1962957;-73
2021/04/11 03:26:28;;;;;;;18.42;10.91;;;;;;;5.69;40.95;100304.77;338515;117;1960822;-73
2021/04/11 03:28:11;;;;;;;19.59;11.94;;;;;;;5.70;40.99;100309.95;339498;114;1961988;-74
2021/04/11 03:29:25;;;;;;;16.63;10.13;;;;;;;5.71;40.88;100308.11;300501;116;2755004;-73
2021/04/11 03:30:44;;;;;;;20.18;10.59;;;;;;;5.71;40.86;100313.47;341133;114;1960843;-73
2021/04/11 03:32:14;;;;;;;18.88;11.18;;;;;;;5.71;40.85;100308.11;349055;114;1963006;-73
2021/04/11 03:33:23;;;;;;;20.65;11.29;;;;;;;5.72;40.81;100320.53;319340;114;2234001;-72
2021/04/11 03:34:31;;;;;;;21.74;13.72;;;;;;;5.72;40.82;100312.48;348155;114;1969951;-73
2021/04/11 03:35:40;;;;;;;27.21;16.19;;;;;;;5.72;40.82;100316.00;348088;114;1963331;-73
2021/04/11 03:36:47;;;;;;;28.18;17.63;;;;;;;5.71;40.82;100319.66;348450;114;1961753;-72
2021/04/11 03:37:57;;;;;;;26.56;20.44;;;;;;;5.71;40.85;100319.66;347410;114;1961963;-75
2021/04/11 03:39:05;;;;;;;27.52;19.37;;;;;;;5.71;40.89;100316.98;347537;114;1961977;-73
2021/04/11 03:40:15;;;;;;;24.43;15.62;;;;;;;5.73;40.86;100320.35;347903;114;1963942;-72
2021/04/11 03:41:22;;;;;;;25.08;14.51;;;;;;;5.76;40.88;100321.04;348009;114;1963028;-73
2021/04/11 03:42:32;;;;;;;24.52;15.13;;;;;;;5.77;40.87;100322.70;318632;118;2389158;-73
2021/04/11 03:43:45;;;;;;;29.14;18.77;;;;;;;5.80;40.87;100328.61;346677;114;1961936;-73
2021/04/11 03:44:53;;;;;;;24.67;17.32;;;;;;;5.80;40.88;100328.61;339876;116;1962987;-73
2021/04/11 03:46:03;;;;;;;25.48;17.91;;;;;;;5.82;40.81;100325.76;333815;116;1962994;-74
2021/04/11 03:47:21;;;;;;;27.62;22.90;;;;;;;5.85;40.79;100334.34;332232;114;1963051;-73
2021/04/11 03:48:35;;;;;;;23.48;18.46;;;;;;;5.85;40.78;100331.66;349308;114;1961895;-73
2021/04/11 03:49:55;;;;;;;;;;;;;;;5.88;40.71;100331.34;353016;114;1960980;-73
2021/04/11 03:51:06;;;;;;;22.42;13.24;;;;;;;5.91;40.70;100339.06;323249;114;1961954;-73
2021/04/11 03:52:31;;;;;;;19.70;12.94;;;;;;;5.93;40.61;100338.91;304569;116;2142163;-74
2021/04/11 03:53:43;;;;;;;23.34;14.40;;;;;;;5.97;40.58;100340.29;323786;118;1961875;-74
2021/04/11 03:54:50;;;;;;;;;;;;;;;5.98;40.53;100335.77;352277;114;1961005;-73
2021/04/11 03:55:59;;;;;;;22.03;13.36;;;;;;;5.98;40.52;100341.13;321539;118;2322937;-73
2021/04/11 03:57:09;;;;;;;22.51;13.12;;;;;;;6.00;40.49;100341.81;321482;114;2519951;-73
2021/04/11 03:58:20;;;;;;;20.73;13.48;;;;;;;6.01;40.50;100340.84;339458;116;1961998;-74
2021/04/11 03:59:28;;;;;;;23.44;12.17;;;;;;;6.03;40.48;100346.85;346692;114;1969998;-73
2021/04/11 04:00:38;;;;;;;21.98;12.69;;;;;;;6.03;40.48;100344.17;315805;114;1961983;-74
2021/04/11 04:01:50;;;;;;;18.53;11.38;;;;;;;6.05;40.49;100347.55;332267;114;2291053;-73
2021/04/11 04:03:17;;;;;;;21.27;12.48;;;;;;;6.05;40.47;100353.73;314564;114;2636864;-73
2021/04/11 04:04:25;;;;;;;21.59;12.24;;;;;;;6.06;40.43;100350.08;304874;114;2825899;-73
2021/04/11 04:05:36;;;;;;;22.81;13.04;;;;;;;6.08;40.42;100355.27;348593;113;1961021;-73
2021/04/11 04:07:03;;;;;;;21.85;12.05;;;;;;;6.10;40.36;100345.22;346028;116;1961936;-73
2021/04/11 04:08:09;;;;;;;19.43;11.63;;;;;;;6.10;40.48;100356.78;349355;115;1961886;-73
2021/04/11 04:09:14;;;;;;;22.33;12.82;;;;;;;6.12;40.35;100362.00;346018;114;1961981;-74
2021/04/11 04:10:28;;;;;;;22.57;12.35;;;;;;;6.13;40.33;100353.78;349142;114;1960839;-74
2021/04/11 04:11:59;;;;;;;21.57;12.58;;;;;;;6.14;40.34;100357.33;349590;114;1960863;-73
2021/04/11 04:13:10;;;;;;;24.25;13.56;;;;;;;6.18;40.30;100349.79;334799;116;1963705;-74
2021/04/11 04:14:42;;;;;;;23.45;13.54;;;;;;;6.21;40.30;100358.34;344934;114;1960806;-73
2021/04/11 04:16:01;;;;;;;21.73;12.15;;;;;;;6.23;40.30;100356.34;342408;117;1960715;-73
2021/04/11 04:17:12;;;;;;;21.85;12.97;;;;;;;6.26;40.22;100364.07;348929;115;1960790;-73
2021/04/11 04:18:43;;;;;;;24.75;13.67;;;;;;;6.27;40.30;100357.72;330904;110;2308865;-73
2021/04/11 04:20:01;;;;;;;21.87;12.85;;;;;;;6.31;40.16;100367.12;318810;114;2558869;-74
2021/04/11 04:21:19;;;;;;;21.28;12.27;;;;;;;6.35;40.14;100364.94;348335;114;1962015;-72
2021/04/11 04:22:37;;;;;;;23.55;13.51;;;;;;;6.37;40.11;100366.45;348470;114;1961934;-73
2021/04/11 04:24:06;;;;;;;21.27;13.75;;;;;;;6.38;40.11;100368.16;341044;118;1961937;-72
2021/04/11 04:25:22;;;;;;;23.54;12.78;;;;;;;6.42;40.06;100370.52;305928;114;2789967;-73
2021/04/11 04:26:53;;;;;;;23.70;12.06;;;;;;;6.44;40.08;100371.20;348796;114;1962935;-73
2021/04/11 04:28:16;;;;;;;24.36;13.77;;;;;;;6.45;39.99;100373.70;348812;115;1962048;-73
2021/04/11 04:29:39;;;;;;;25.96;15.54;;;;;;;6.48;40.02;100372.55;349099;114;1962920;-73
2021/04/11 04:30:53;;;;;;;;;;;;;;;6.49;39.96;100376.92;334939;114;2268891;-73
2021/04/11 04:32:09;;;;;;;24.58;13.33;;;;;;;6.51;39.98;100382.95;348471;114;1961048;-74
2021/04/11 04:33:36;;;;;;;28.03;15.67;;;;;;;6.54;39.92;100374.59;340273;116;1962031;-74
2021/04/11 04:35:12;;;;;;;28.99;18.44;;;;;;;6.55;39.89;100379.78;342597;116;1962061;-73
2021/04/11 04:36:31;;;;;;;27.89;17.22;;;;;;;6.58;40.05;100378.63;311393;116;1966697;-73
2021/04/11 04:38:00;;;;;;;32.53;18.24;;;;;;;6.60;39.85;100376.63;332209;114;2269950;-73
2021/04/11 04:39:15;;;;;;;39.12;20.33;;;;;;;6.63;39.94;100384.34;348506;114;1962930;-74
2021/04/11 04:40:46;;;;;;;33.30;21.31;;;;;;;6.67;39.92;100384.85;318035;114;1961989;-73
2021/04/11 04:42:12;;;;;;;34.17;19.39;;;;;;;6.66;39.93;100378.64;334936;120;1963966;-73
2021/04/11 04:43:31;;;;;;;28.94;17.59;;;;;;;6.72;39.90;100380.70;341889;116;1963967;-74
2021/04/11 04:44:47;;;;;;;30.57;16.97;;;;;;;6.74;39.80;100384.03;300668;116;2812993;-73
2021/04/11 04:46:14;;;;;;;32.20;17.83;;;;;;;6.77;39.79;100383.73;317422;114;1961903;-73
2021/04/11 04:47:42;;;;;;;26.91;15.74;;;;;;;6.80;39.77;100385.23;347757;116;1961084;-73
2021/04/11 04:50:21;;;;;;;32.24;16.57;;;;;;;6.98;39.76;100390.48;392358;103;1981892;-73
2021/04/11 04:51:32;;;;;;;27.16;15.42;;;;;;;6.90;39.76;100379.72;374241;107;1960997;-73
2021/04/11 04:52:43;;;;;;;27.45;15.48;;;;;;;6.95;39.71;100393.50;374845;107;1962004;-73
2021/04/11 04:54:24;;;;;;;22.32;13.31;;;;;;;6.98;39.63;100393.16;355377;105;2244977;-74
2021/04/11 04:55:33;;;;;;;23.21;13.51;;;;;;;7.01;39.52;100392.83;368496;105;1962001;-73
2021/04/11 04:56:45;;;;;;;22.54;14.08;;;;;;;7.07;39.39;100394.05;373053;107;1963962;-74
2021/04/11 04:58:01;;;;;;;21.13;12.32;;;;;;;7.10;39.26;100394.55;374830;105;1961956;-75
2021/04/11 04:59:14;;;;;;;20.32;12.26;;;;;;;7.12;39.16;100395.22;357547;111;1962020;-73
2021/04/11 05:00:37;;;;;;;20.60;12.84;;;;;;;7.17;39.06;100392.02;358131;111;1961993;-73
2021/04/11 05:01:53;;;;;;;23.65;13.11;;;;;;;7.19;39.00;100393.53;353922;111;1961999;-73
2021/04/11 05:03:21;;;;;;;22.72;12.75;;;;;;;7.22;38.88;100389.67;354221;113;1961960;-73
2021/04/11 05:04:44;;;;;;;22.87;12.99;;;;;;;7.24;38.85;100398.41;353971;114;1963022;-73
2021/04/11 05:05:57;;;;;;;23.27;12.97;;;;;;;7.29;38.86;100400.61;356205;112;1962059;-74
2021/04/11 05:07:11;;;;;;;22.32;13.11;;;;;;;7.32;38.86;100395.73;354239;112;1963940;-73
2021/04/11 05:08:25;;;;;;;24.26;12.47;;;;;;;7.35;38.78;100399.94;340728;116;1961908;-74
2021/04/11 05:09:52;;;;;;;23.83;12.80;;;;;;;7.39;38.70;100398.61;297702;119;2101550;-74
2021/04/11 05:11:26;;;;;;;29.04;14.56;;;;;;;7.42;38.66;100403.64;342833;117;1961930;-73
2021/04/11 05:12:44;;;;;;;24.87;12.66;;;;;;;7.45;38.58;100406.83;344026;115;1962021;-73
2021/04/11 05:14:00;;;;;;;24.12;13.79;;;;;;;7.49;38.51;100407.35;337654;117;1965060;-73
2021/04/11 05:15:12;;;;;;;23.81;14.37;;;;;;;7.52;38.45;100406.17;336478;115;1962177;-73
2021/04/11 05:16:30;;;;;;;27.32;16.54;;;;;;;7.53;38.38;100405.16;345531;117;1964002;-73
2021/04/11 05:17:39;;;;;;;31.02;18.10;;;;;;;7.56;38.33;100402.96;340100;118;1962959;-74
2021/04/11 05:18:48;;;;;;;27.84;17.73;;;;;;;7.60;38.31;100408.86;338713;118;1962046;-74
2021/04/11 05:20:02;;;;;;;30.48;18.03;;;;;;;7.64;38.27;100412.88;334586;117;1963064;-74
2021/04/11 05:21:19;;;;;;;30.60;17.37;;;;;;;7.65;38.23;100415.41;335281;118;1962020;-74
2021/04/11 05:22:45;;;;;;;26.51;16.38;;;;;;;7.68;38.26;100414.23;338857;117;1962069;-74
2021/04/11 05:24:03;;;;;;;27.19;17.01;;;;;;;7.72;38.19;100415.56;345050;115;1963005;-74
2021/04/11 05:25:16;;;;;;;28.99;16.62;;;;;;;7.77;38.12;100415.89;341139;117;1962018;-73